createdAt,value
2022-09-04T00:01:08.678Z,2.10
2022-09-04T00:03:58.284Z,2.00
2022-09-04T00:07:00.614Z,1.90
2022-09-04T00:10:31.256Z,1.80
2022-09-04T00:20:54.853Z,2.30
2022-09-04T00:24:40.787Z,2.40
2022-09-04T00:27:44.626Z,2.20
2022-09-04T00:30:46.455Z,2.60
2022-09-04T00:34:20.588Z,2.60
2022-09-04T00:37:34.635Z,2.40
2022-09-04T00:40:47.328Z,2.80
2022-09-04T00:44:13.359Z,2.50
2022-09-04T00:47:48.643Z,2.20
2022-09-04T00:51:25.269Z,1.70
2022-09-04T00:54:55.981Z,1.90
2022-09-04T00:58:15.944Z,1.70
2022-09-04T01:01:19.223Z,1.20
2022-09-04T01:04:41.710Z,1.60
2022-09-04T01:07:38.496Z,1.30
2022-09-04T01:11:05.097Z,1.60
2022-09-04T01:14:22.561Z,1.10
2022-09-04T01:17:37.607Z,1.10
2022-09-04T01:21:06.018Z,0.80
2022-09-04T01:24:15.843Z,1.20
2022-09-04T01:27:04.732Z,1.20
2022-09-04T01:30:10.400Z,1.00
2022-09-04T01:33:40.668Z,1.30
2022-09-04T01:36:55.789Z,1.30
2022-09-04T01:39:51.265Z,1.00
2022-09-04T01:42:56.203Z,0.70
2022-09-04T01:46:22.489Z,0.80
2022-09-04T01:49:21.127Z,0.70
2022-09-04T01:52:38.600Z,0.70
2022-09-04T01:55:36.811Z,0.80
2022-09-04T01:58:19.247Z,0.90
2022-09-04T02:01:38.830Z,0.80
2022-09-04T02:04:32.349Z,0.80
2022-09-04T02:07:24.087Z,1.10
2022-09-04T02:10:34.637Z,1.30
2022-09-04T02:13:14.592Z,1.10
2022-09-04T02:16:04.355Z,1.20
2022-09-04T02:19:20.425Z,0.90
2022-09-04T02:22:41.582Z,0.70
2022-09-04T02:25:28.943Z,0.60
2022-09-04T02:28:52.454Z,0.70
2022-09-04T02:32:10.978Z,0.70
2022-09-04T02:35:09.352Z,0.50
2022-09-04T02:38:03.419Z,0.50
2022-09-04T02:43:59.160Z,1.00
2022-09-04T02:50:03.464Z,0.80
2022-09-04T02:53:07.770Z,1.40
2022-09-04T02:56:13.752Z,2.50
2022-09-04T02:59:24.955Z,2.80
2022-09-04T03:02:38.411Z,3.80
2022-09-04T03:05:50.120Z,3.10
2022-09-04T03:09:05.538Z,3.00
2022-09-04T03:11:50.707Z,2.80
2022-09-04T03:14:48.947Z,3.00
2022-09-04T03:17:58.335Z,3.30
2022-09-04T03:20:43.145Z,3.90
2022-09-04T03:23:46.236Z,5.10
2022-09-04T03:26:50.248Z,6.10
2022-09-04T03:29:43.366Z,1.30
2022-09-04T03:33:02.331Z,0.60
2022-09-04T03:36:13.340Z,0.50
2022-09-04T03:39:06.851Z,0.60
2022-09-04T03:42:31.017Z,0.90
2022-09-04T03:45:29.375Z,0.60
2022-09-04T03:48:52.580Z,0.50
2022-09-04T03:56:39.985Z,0.60
2022-09-04T04:00:02.056Z,0.50
2022-09-04T04:03:44.461Z,0.70
2022-09-04T04:06:36.959Z,0.60
2022-09-04T04:09:38.091Z,0.60
2022-09-04T04:12:56.391Z,0.60
2022-09-04T04:16:28.327Z,0.70
2022-09-04T04:19:36.288Z,0.70
2022-09-04T04:22:54.531Z,0.70
2022-09-04T04:26:10.526Z,0.90
2022-09-04T04:29:50.863Z,0.90
2022-09-04T04:33:10.611Z,0.70
2022-09-04T04:36:32.335Z,0.70
2022-09-04T04:39:19.262Z,0.60
2022-09-04T04:42:29.046Z,0.60
2022-09-04T04:45:46.685Z,0.70
2022-09-04T04:49:22.172Z,0.70
2022-09-04T04:53:09.509Z,0.50
2022-09-04T04:56:06.721Z,0.40
2022-09-04T04:59:20.274Z,0.50
2022-09-04T05:02:53.621Z,0.50
2022-09-04T05:06:03.412Z,0.60
2022-09-04T05:08:54.556Z,0.50
2022-09-04T05:12:04.026Z,0.50
2022-09-04T05:15:19.241Z,0.70
2022-09-04T05:18:34.212Z,0.60
2022-09-04T05:21:36.464Z,0.60
2022-09-04T05:24:44.255Z,0.80
2022-09-04T05:27:52.417Z,0.70
2022-09-04T05:35:35.304Z,0.60
2022-09-04T05:38:34.072Z,0.70
2022-09-04T05:46:15.349Z,2.20
2022-09-04T05:49:38.303Z,1.30
2022-09-04T05:57:34.174Z,1.10
2022-09-04T06:00:44.331Z,1.10
2022-09-04T06:04:31.384Z,0.90
2022-09-04T06:12:19.239Z,1.10
2022-09-04T06:15:21.985Z,0.90
2022-09-04T06:23:20.560Z,0.80
2022-09-04T06:27:03.542Z,0.60
2022-09-04T06:30:05.965Z,0.60
2022-09-04T06:33:39.180Z,0.60
2022-09-04T06:37:00.028Z,0.70
2022-09-04T06:40:34.577Z,0.50
2022-09-04T06:43:55.772Z,0.70
2022-09-04T06:47:16.713Z,0.60
2022-09-04T06:50:38.597Z,0.30
2022-09-04T06:53:41.956Z,0.50
2022-09-04T06:56:55.289Z,0.60
2022-09-04T07:04:10.491Z,0.80
2022-09-04T07:07:19.259Z,0.70
2022-09-04T07:10:10.461Z,0.60
2022-09-04T07:13:23.751Z,1.40
2022-09-04T07:16:42.506Z,0.60
2022-09-04T07:19:39.279Z,0.80
2022-09-04T07:22:56.810Z,0.70
2022-09-04T07:25:45.102Z,0.40
2022-09-04T07:28:32.120Z,0.40
2022-09-04T07:31:05.435Z,0.40
2022-09-04T07:33:42.257Z,0.30
2022-09-04T07:36:20.277Z,0.20
2022-09-04T07:38:58.573Z,0.30
2022-09-04T07:41:45.291Z,0.30
2022-09-04T07:44:26.659Z,0.30
2022-09-04T07:47:16.141Z,0.30
2022-09-04T07:50:03.448Z,0.30
2022-09-04T07:52:51.469Z,0.30
2022-09-04T07:55:30.935Z,0.30
2022-09-04T07:58:34.385Z,0.30
2022-09-04T08:01:30.201Z,0.40
2022-09-04T08:04:37.844Z,0.70
2022-09-04T08:07:15.439Z,0.10
2022-09-04T08:10:06.811Z,0.60
2022-09-04T08:12:52.795Z,0.40
2022-09-04T08:15:32.205Z,0.50
2022-09-04T08:18:21.048Z,0.40
2022-09-04T08:20:58.292Z,0.30
2022-09-04T08:23:52.387Z,0.20
2022-09-04T08:26:35.210Z,0.40
2022-09-04T08:29:24.576Z,0.30
2022-09-04T08:32:11.923Z,0.30
2022-09-04T08:35:15.526Z,0.40
2022-09-04T08:38:01.966Z,0.50
2022-09-04T08:40:56.429Z,0.20
2022-09-04T08:43:41.036Z,0.30
2022-09-04T08:46:52.506Z,0.80
2022-09-04T08:50:04.346Z,0.30
2022-09-04T08:53:19.701Z,0.30
2022-09-04T08:56:18.312Z,0.40
2022-09-04T08:59:25.429Z,0.40
2022-09-04T09:02:21.523Z,0.20
2022-09-04T09:05:11.619Z,0.30
2022-09-04T09:08:21.306Z,0.40
2022-09-04T09:11:39.104Z,0.40
2022-09-04T09:14:55.361Z,0.20
2022-09-04T09:17:38.862Z,0.30
2022-09-04T09:20:42.414Z,0.30
2022-09-04T09:23:21.330Z,0.40
2022-09-04T09:26:08.215Z,0.40
2022-09-04T09:29:13.287Z,0.40
2022-09-04T09:32:16.583Z,0.40
2022-09-04T09:35:54.016Z,0.30
2022-09-04T09:38:50.036Z,0.40
2022-09-04T09:41:53.366Z,0.40
2022-09-04T09:44:44.657Z,0.30
2022-09-04T09:48:15.462Z,0.30
2022-09-04T09:51:16.445Z,0.40
2022-09-04T09:54:58.835Z,0.30
2022-09-04T09:57:59.478Z,0.40
2022-09-04T10:00:45.990Z,0.20
2022-09-04T10:04:06.347Z,0.50
2022-09-04T10:07:09.937Z,0.60
2022-09-04T10:10:27.473Z,0.40
2022-09-04T10:13:33.666Z,0.40
2022-09-04T10:16:46.045Z,0.40
2022-09-04T10:19:47.041Z,0.30
2022-09-04T10:22:47.885Z,0.50
2022-09-04T10:25:37.577Z,0.50
2022-09-04T10:28:29.985Z,0.60
2022-09-04T10:31:52.946Z,0.50
2022-09-04T10:34:39.853Z,0.50
2022-09-04T10:37:28.814Z,0.50
2022-09-04T10:40:39.785Z,0.70
2022-09-04T10:43:47.047Z,0.60
2022-09-04T10:46:26.907Z,0.50
2022-09-04T10:49:34.887Z,0.60
2022-09-04T10:52:39.353Z,0.60
2022-09-04T10:55:42.107Z,0.40
2022-09-04T10:58:39.464Z,0.60
2022-09-04T11:01:37.303Z,0.70
2022-09-04T11:04:40.351Z,0.70
2022-09-04T11:07:55.930Z,0.60
2022-09-04T11:10:36.899Z,0.60
2022-09-04T11:13:55.825Z,0.80
2022-09-04T11:16:47.773Z,0.60
2022-09-04T11:20:01.815Z,0.60
2022-09-04T11:23:07.090Z,0.50
2022-09-04T11:26:15.239Z,0.60
2022-09-04T11:29:17.714Z,0.70
2022-09-04T11:32:20.621Z,0.60
2022-09-04T11:35:25.510Z,0.80
2022-09-04T11:38:19.648Z,0.60
2022-09-04T11:41:27.814Z,0.70
2022-09-04T11:44:24.757Z,0.90
2022-09-04T11:47:28.801Z,0.90
2022-09-04T11:50:15.961Z,0.80
2022-09-04T11:53:21.369Z,0.70
2022-09-04T11:56:11.375Z,1.00
2022-09-04T11:58:59.204Z,0.80
2022-09-04T12:01:47.946Z,0.70
2022-09-04T12:07:21.367Z,0.80
2022-09-04T12:10:23.327Z,1.00
2022-09-04T12:13:24.992Z,0.80
2022-09-04T12:16:20.134Z,0.80
2022-09-04T12:19:19.673Z,0.70
2022-09-04T12:22:23.165Z,0.90
2022-09-04T12:25:25.083Z,0.90
2022-09-04T12:28:22.305Z,0.70
2022-09-04T12:31:08.129Z,0.60
2022-09-04T12:34:13.461Z,0.90
2022-09-04T12:37:09.888Z,0.70
2022-09-04T12:40:28.260Z,1.00
2022-09-04T12:43:08.248Z,0.80
2022-09-04T12:45:48.038Z,0.90
2022-09-04T12:48:32.800Z,0.90
2022-09-04T12:51:13.170Z,0.70
2022-09-04T12:54:04.214Z,0.80
2022-09-04T12:56:49.004Z,0.70
2022-09-04T13:00:03.506Z,0.90
2022-09-04T13:02:55.697Z,0.50
2022-09-04T13:05:36.201Z,0.80
2022-09-04T13:08:23.941Z,1.10
2022-09-04T13:11:10.069Z,1.20
2022-09-04T13:13:55.101Z,1.30
2022-09-04T13:16:31.003Z,0.90
2022-09-04T13:19:17.534Z,1.00
2022-09-04T13:22:03.571Z,1.00
2022-09-04T13:24:50.768Z,0.90
2022-09-04T13:27:39.763Z,1.30
2022-09-04T13:30:21.260Z,1.00
2022-09-04T13:33:15.242Z,0.80
2022-09-04T13:36:02.730Z,0.90
2022-09-04T13:38:57.420Z,1.20
2022-09-04T13:42:05.142Z,1.00
2022-09-04T13:44:59.694Z,0.70
2022-09-04T13:47:39.534Z,0.80
2022-09-04T13:53:02.241Z,0.90
2022-09-04T13:55:38.630Z,0.90
2022-09-04T13:58:12.681Z,0.80
2022-09-04T14:00:46.794Z,0.80
2022-09-04T14:03:31.147Z,0.70
2022-09-04T14:06:07.709Z,1.00
2022-09-04T14:08:39.182Z,1.10
2022-09-04T14:11:39.984Z,0.80
2022-09-04T14:14:27.437Z,1.40
2022-09-04T14:16:59.970Z,0.80
2022-09-04T14:19:44.312Z,0.70
2022-09-04T14:22:25.443Z,0.80
2022-09-04T14:25:16.660Z,0.80
2022-09-04T14:27:54.426Z,0.70
2022-09-04T14:30:31.168Z,0.70
2022-09-04T14:33:18.883Z,0.70
2022-09-04T14:35:59.100Z,0.70
2022-09-04T14:38:48.906Z,0.80
2022-09-04T14:41:36.262Z,0.50
2022-09-04T14:44:18.799Z,0.50
2022-09-04T14:47:02.891Z,0.70
2022-09-04T14:49:47.414Z,0.70
2022-09-04T14:52:21.120Z,0.70
2022-09-04T14:54:57.897Z,0.70
2022-09-04T14:57:37.768Z,0.50
2022-09-04T15:00:16.895Z,1.00
2022-09-04T15:03:16.051Z,0.70
2022-09-04T15:05:51.020Z,0.80
2022-09-04T15:08:29.590Z,0.80
2022-09-04T15:11:04.937Z,0.70
2022-09-04T15:13:50.938Z,0.70
2022-09-04T15:16:27.856Z,0.60
2022-09-04T15:19:05.575Z,0.80
2022-09-04T15:21:45.795Z,0.60
2022-09-04T15:24:32.788Z,0.70
2022-09-04T15:29:46.983Z,0.50
2022-09-04T15:32:23.665Z,0.60
2022-09-04T15:35:08.668Z,0.50
2022-09-04T15:37:38.094Z,0.40
2022-09-04T15:40:11.830Z,2.10
2022-09-04T15:42:45.547Z,0.50
2022-09-04T15:45:23.339Z,0.90
2022-09-04T15:48:17.143Z,0.60
2022-09-04T15:51:14.043Z,0.60
2022-09-04T15:53:50.399Z,0.50
2022-09-04T15:56:34.987Z,0.50
2022-09-04T15:59:11.669Z,0.80
2022-09-04T16:01:48.304Z,0.60
2022-09-04T16:04:35.696Z,0.50
2022-09-04T16:07:34.216Z,0.90
2022-09-04T16:10:15.947Z,1.20
2022-09-04T16:12:52.689Z,1.00
2022-09-04T16:15:27.269Z,1.00
2022-09-04T16:18:33.737Z,1.00
2022-09-04T16:21:11.089Z,0.60
2022-09-04T16:23:44.242Z,1.00
2022-09-04T16:26:17.975Z,0.80
2022-09-04T16:29:25.810Z,0.80
2022-09-04T16:32:22.769Z,0.80
2022-09-04T16:35:18.737Z,1.00
2022-09-04T16:38:25.535Z,0.90
2022-09-04T16:40:59.934Z,0.70
2022-09-04T16:43:33.595Z,0.80
2022-09-04T16:46:31.000Z,0.80
2022-09-04T16:49:26.608Z,0.80
2022-09-04T16:52:45.555Z,0.80
2022-09-04T16:55:45.960Z,0.40
2022-09-04T16:58:54.319Z,0.50
2022-09-04T17:01:48.872Z,0.60
2022-09-04T17:04:40.365Z,0.70
2022-09-04T17:07:18.448Z,0.80
2022-09-04T17:10:36.285Z,0.80
2022-09-04T17:13:36.986Z,1.40
2022-09-04T17:16:24.788Z,0.80
2022-09-04T17:19:01.460Z,0.70
2022-09-04T17:26:22.662Z,0.90
2022-09-04T17:29:11.753Z,0.90
2022-09-04T17:29:34.920Z,0.90
2022-09-04T17:32:38.349Z,0.70
2022-09-04T17:40:41.900Z,0.90
2022-09-04T17:40:46.674Z,0.90
2022-09-04T17:42:41.911Z,0.70
2022-09-04T17:46:24.011Z,0.60
2022-09-04T17:49:19.563Z,0.80
2022-09-04T17:52:20.990Z,0.70
2022-09-04T17:55:21.998Z,0.80
2022-09-04T17:58:31.977Z,0.90
2022-09-04T18:01:22.217Z,0.60
2022-09-04T18:04:32.003Z,0.90
2022-09-04T18:08:07.931Z,1.20
2022-09-04T18:10:30.750Z,0.50
2022-09-04T18:13:36.705Z,0.80
2022-09-04T18:16:17.884Z,0.80
2022-09-04T18:19:12.797Z,0.90
2022-09-04T18:21:51.372Z,0.90
2022-09-04T18:24:44.499Z,0.90
2022-09-04T18:27:18.941Z,0.90
2022-09-04T18:32:27.020Z,0.80
2022-09-04T18:37:19.446Z,1.00
2022-09-04T18:37:23.608Z,0.90
2022-09-04T18:39:58.819Z,1.10
2022-09-04T18:50:22.701Z,0.90
2022-09-04T18:50:28.381Z,1.00
2022-09-04T18:50:44.951Z,1.00
2022-09-04T18:52:54.826Z,1.10
2022-09-04T18:55:43.312Z,1.10
2022-09-04T18:58:51.590Z,1.20
2022-09-04T19:02:03.600Z,1.10
2022-09-04T19:05:08.330Z,1.20
2022-09-04T19:07:44.599Z,1.40
2022-09-04T19:10:26.327Z,1.90
2022-09-04T19:13:11.883Z,1.80
2022-09-04T19:16:04.104Z,1.20
2022-09-04T19:18:49.095Z,1.40
2022-09-04T19:21:46.119Z,1.30
2022-09-04T19:25:15.499Z,1.70
2022-09-04T19:28:02.961Z,1.60
2022-09-04T19:30:45.249Z,1.90
2022-09-04T19:33:38.524Z,1.80
2022-09-04T19:36:24.728Z,1.40
2022-09-04T19:45:56.271Z,1.60
2022-09-04T19:46:01.096Z,1.10
2022-09-04T19:46:13.656Z,1.00
2022-09-04T19:48:33.504Z,1.20
2022-09-04T19:53:29.789Z,1.20
2022-09-04T19:54:11.210Z,1.30
2022-09-04T19:57:31.913Z,1.60
2022-09-04T19:59:44.896Z,1.50
2022-09-04T20:02:49.615Z,1.40
2022-09-04T20:06:20.854Z,1.60
2022-09-04T20:09:02.935Z,1.70
2022-09-04T20:11:42.512Z,1.80
2022-09-04T20:14:49.562Z,1.80
2022-09-04T20:17:49.694Z,1.70
2022-09-04T20:20:49.273Z,1.90
2022-09-04T20:23:48.260Z,1.90
2022-09-04T20:26:31.543Z,1.70
2022-09-04T20:29:13.091Z,2.10
2022-09-04T20:32:00.565Z,2.10
2022-09-04T20:34:38.416Z,2.40
2022-09-04T20:37:28.508Z,2.40
2022-09-04T20:40:18.822Z,2.50
2022-09-04T20:43:24.321Z,2.40
2022-09-04T20:52:41.352Z,2.70
2022-09-04T20:52:51.803Z,2.20
2022-09-04T20:53:12.309Z,2.40
2022-09-04T20:57:38.790Z,2.70
2022-09-04T21:03:10.760Z,2.60
2022-09-04T21:03:28.032Z,2.50
2022-09-04T21:06:20.286Z,2.20
2022-09-04T21:09:28.963Z,2.20
2022-09-04T21:17:06.810Z,2.20
2022-09-04T21:20:35.882Z,2.40
2022-09-04T21:24:25.957Z,2.30
2022-09-04T21:27:37.660Z,2.40
2022-09-04T21:30:53.022Z,2.70
2022-09-04T21:34:45.024Z,2.10
2022-09-04T23:28:40.036Z,3.30
2022-09-04T23:32:04.753Z,3.00
2022-09-04T23:35:14.741Z,2.70
2022-09-04T23:38:38.401Z,3.00
2022-09-04T23:45:48.806Z,2.20
2022-09-04T23:49:09.336Z,1.90
